Time;durP1;ratioP1;P1;durP2;ratioP2;P2;SDS_P1;SDS_P2;PMS_P1;PMS_P2;Temp;Humidity;BMP_temperature;BMP_pressure;BME280_temperature;BME280_humidity;BME280_pressure;Samples;Min_cycle;Max_cycle;Signal;HPM_P1;HPM_P2
2022/09/24 00:01:11;;;;;;;;;22.80;20.60;;;;;11.93;54.55;98877.41;6184517;28;96489;-64
2022/09/24 00:04:18;;;;;;;;;24.75;24.00;;;;;11.91;54.91;98877.66;6187655;28;97028;-70
2022/09/24 00:07:22;;;;;;;;;26.20;23.60;;;;;11.84;54.73;98876.94;6195029;28;96396;-70
2022/09/24 00:10:25;;;;;;;;;24.00;23.00;;;;;11.84;55.08;98886.91;6188662;28;96520;-67
2022/09/24 00:13:29;;;;;;;;;24.20;21.80;;;;;11.85;54.73;98883.97;6187554;28;96367;-63
2022/09/24 00:16:35;;;;;;;;;24.40;23.00;;;;;11.61;54.36;98841.72;6187613;28;96282;-69
2022/09/24 00:19:38;;;;;;;;;24.00;23.00;;;;;11.72;54.27;98876.03;6188808;28;96269;-60
2022/09/24 00:22:41;;;;;;;;;24.40;22.40;;;;;11.63;54.05;98869.31;6189147;28;96411;-63
2022/09/24 00:29:08;;;;;;;;;25.00;23.00;;;;;11.51;54.29;98863.88;6189328;28;96447;-64
2022/09/24 00:32:13;;;;;;;;;24.80;21.80;;;;;11.44;54.43;98871.22;6181185;28;96460;-63
2022/09/24 00:35:17;;;;;;;;;25.40;23.40;;;;;11.40;54.33;98867.31;6187256;28;96492;-64
2022/09/24 00:38:20;;;;;;;;;28.60;26.00;;;;;11.39;54.58;98870.25;6186605;28;96384;-63
2022/09/24 00:41:27;;;;;;;;;25.40;22.40;;;;;11.36;54.31;98871.53;6186713;28;96474;-70
2022/09/24 00:44:53;;;;;;;;;24.40;22.40;;;;;11.35;54.23;98867.19;6186604;28;96638;-70
2022/09/24 00:47:58;;;;;;;;;26.00;23.40;;;;;11.29;54.45;98860.81;6181535;28;96856;-64
2022/09/24 00:51:04;;;;;;;;;23.60;22.00;;;;;11.09;54.54;98846.72;6187591;28;96734;-63
2022/09/24 00:54:12;;;;;;;;;28.00;27.00;;;;;11.26;54.75;98855.06;6188054;28;96229;-59
2022/09/24 00:57:16;;;;;;;;;27.60;26.00;;;;;11.30;54.83;98854.38;6188767;28;96470;-62
2022/09/24 01:00:20;;;;;;;;;27.00;24.50;;;;;11.30;54.77;98853.53;6186795;28;97679;-70
2022/09/24 01:03:27;;;;;;;;;27.80;25.80;;;;;11.26;55.15;98844.25;6184877;28;96935;-60
2022/09/24 01:06:30;;;;;;;;;28.00;25.60;;;;;11.25;55.19;98838.03;6188222;28;96365;-63
2022/09/24 01:09:34;;;;;;;;;29.80;27.80;;;;;11.27;54.97;98835.13;6186558;28;96583;-63
2022/09/24 01:12:47;;;;;;;;;27.00;26.00;;;;;11.34;54.84;98835.03;6186048;28;96570;-61
2022/09/24 01:15:59;;;;;;;;;29.00;26.00;;;;;11.38;55.03;98837.06;6187986;28;97001;-59
2022/09/24 01:19:18;;;;;;;;;25.00;23.60;;;;;11.41;54.62;98830.34;6188581;28;97053;-59
2022/09/24 01:22:35;;;;;;;;;24.00;23.80;;;;;11.39;54.54;98827.06;6175543;28;96469;-63
2022/09/24 01:25:49;;;;;;;;;27.25;25.75;;;;;11.38;54.47;98825.44;6185971;28;96316;-65
2022/09/24 01:29:05;;;;;;;;;31.00;30.00;;;;;11.40;54.58;98826.00;6185883;28;96835;-63
2022/09/24 01:32:17;;;;;;;;;29.00;27.00;;;;;11.43;55.08;98828.28;6178999;28;96359;-63
2022/09/24 01:35:26;;;;;;;;;28.20;25.00;;;;;11.36;54.28;98828.34;6184943;28;96353;-65
2022/09/24 01:38:33;;;;;;;;;24.60;22.60;;;;;11.27;54.02;98824.31;6187276;28;96376;-70
2022/09/24 01:41:38;;;;;;;;;25.60;23.60;;;;;11.11;53.99;98820.38;6187344;28;96584;-63
2022/09/24 01:44:44;;;;;;;;;23.60;23.60;;;;;10.95;54.04;98822.84;6187234;28;96693;-64
2022/09/24 01:47:49;;;;;;;;;26.00;24.00;;;;;10.84;54.03;98829.84;6186778;28;96542;-63
2022/09/24 01:50:59;;;;;;;;;25.60;23.60;;;;;10.72;53.98;98824.34;6187524;28;97209;-64
2022/09/24 01:54:08;;;;;;;;;23.50;22.50;;;;;10.56;54.42;98814.13;6186816;28;96930;-63
2022/09/24 01:57:15;;;;;;;;;23.75;21.50;;;;;10.63;54.23;98827.56;6186930;28;96371;-72
2022/09/24 02:00:21;;;;;;;;;28.40;24.40;;;;;10.62;54.24;98820.50;6184095;28;96681;-62
2022/09/24 02:03:33;;;;;;;;;23.60;21.60;;;;;10.61;54.35;98818.84;6187537;28;97092;-66
2022/09/24 02:06:44;;;;;;;;;27.00;25.00;;;;;10.59;54.13;98824.50;6175942;28;96695;-61
2022/09/24 02:09:49;;;;;;;;;22.00;21.00;;;;;10.50;53.73;98828.53;6186835;28;96491;-65
2022/09/24 02:12:58;;;;;;;;;27.40;24.00;;;;;10.41;54.14;98827.97;6187270;28;96460;-70
2022/09/24 02:16:05;;;;;;;;;22.60;21.20;;;;;10.42;54.48;98831.50;6187548;28;96267;-71
2022/09/24 02:19:13;;;;;;;;;24.50;22.00;;;;;10.47;54.84;98837.03;6187159;28;96382;-63
2022/09/24 02:22:18;;;;;;;;;24.60;22.00;;;;;10.50;54.76;98833.09;6186500;28;96396;-63
2022/09/24 02:25:28;;;;;;;;;25.00;24.00;;;;;10.54;54.79;98827.03;6187014;28;96334;-58
2022/09/24 02:28:33;;;;;;;;;28.40;26.40;;;;;10.49;55.69;98832.28;6186266;28;96418;-59
2022/09/24 02:31:41;;;;;;;;;25.75;24.00;;;;;10.44;55.07;98824.03;6186467;28;96955;-60
2022/09/24 02:34:51;;;;;;;;;24.60;22.20;;;;;10.47;55.15;98820.03;6187275;28;96512;-59
2022/09/24 02:37:54;;;;;;;;;26.25;23.00;;;;;10.45;55.14;98809.50;6185747;28;96370;-59
2022/09/24 02:40:57;;;;;;;;;24.00;22.80;;;;;10.43;54.86;98816.97;6182928;28;96830;-63
2022/09/24 02:44:01;;;;;;;;;26.40;24.40;;;;;10.41;55.06;98813.66;6186333;28;96277;-65
2022/09/24 02:47:05;;;;;;;;;27.40;24.40;;;;;10.35;55.11;98807.31;6186530;28;96232;-59
2022/09/24 02:50:10;;;;;;;;;27.00;24.00;;;;;10.37;55.10;98805.22;6184637;28;96658;-68
2022/09/24 02:53:14;;;;;;;;;24.80;22.80;;;;;10.39;54.88;98803.13;6185988;28;96991;-63
2022/09/24 02:56:17;;;;;;;;;27.60;25.40;;;;;10.43;54.65;98801.63;6173318;28;96323;-63
2022/09/24 02:59:20;;;;;;;;;27.00;25.40;;;;;10.45;54.59;98792.50;6190367;28;96355;-63
2022/09/24 03:02:23;;;;;;;;;23.40;22.40;;;;;10.41;54.28;98792.94;6189950;28;96329;-70
2022/09/24 03:05:28;;;;;;;;;25.25;24.00;;;;;10.38;54.60;98796.09;6190553;28;96472;-63
2022/09/24 03:08:32;;;;;;;;;27.50;26.25;;;;;10.39;55.45;98795.06;6190249;28;97253;-59
2022/09/24 03:11:35;;;;;;;;;25.33;24.00;;;;;10.43;55.04;98801.63;6189845;28;97557;-67
2022/09/24 03:14:38;;;;;;;;;25.00;22.00;;;;;10.46;54.94;98797.66;6190545;28;96482;-60
2022/09/24 03:17:42;;;;;;;;;25.00;24.00;;;;;10.48;54.80;98795.56;6189744;28;96928;-59
2022/09/24 03:20:56;;;;;;;;;24.00;23.00;;;;;10.48;55.04;98797.44;6185642;28;96338;-63
2022/09/24 03:24:00;;;;;;;;;25.00;23.00;;;;;10.46;54.87;98786.88;6190523;28;96550;-59
2022/09/24 03:27:03;;;;;;;;;28.00;25.00;;;;;10.48;54.62;98784.78;6189662;28;96140;-63
2022/09/24 03:33:31;;;;;;;;;24.75;23.00;;;;;10.51;54.38;98778.94;6185733;28;96860;-63
2022/09/24 03:36:36;;;;;;;;;22.60;22.00;;;;;10.52;54.25;98782.47;6189482;28;96352;-63
2022/09/24 03:39:39;;;;;;;;;26.20;24.20;;;;;10.48;55.07;98775.88;6189314;28;97286;-66
2022/09/24 03:42:43;;;;;;;;;25.00;23.50;;;;;10.46;55.15;98775.31;6190559;28;96271;-63
2022/09/24 03:45:47;;;;;;;;;26.50;23.50;;;;;10.47;54.79;98774.22;6177120;28;96450;-64
2022/09/24 03:48:51;;;;;;;;;28.60;26.40;;;;;10.51;54.73;98781.63;6187019;28;96292;-63
2022/09/24 03:51:56;;;;;;;;;25.40;23.40;;;;;10.58;54.95;98782.41;6187369;28;96515;-63
2022/09/24 03:54:59;;;;;;;;;26.40;23.60;;;;;10.63;54.67;98784.44;6183156;28;96822;-63
2022/09/24 03:58:02;;;;;;;;;23.00;22.00;;;;;10.64;55.08;98781.50;6188869;28;96413;-63
2022/09/24 04:01:06;;;;;;;;;21.00;21.00;;;;;10.67;54.77;98789.16;6191868;28;97849;-63
2022/09/24 04:04:14;;;;;;;;;22.00;21.00;;;;;10.70;55.34;98795.97;6190511;28;96905;-59
2022/09/24 04:07:18;;;;;;;;;21.20;19.20;;;;;10.69;55.27;98789.75;6188614;28;96356;-63
2022/09/24 04:10:23;;;;;;;;;20.00;19.00;;;;;10.70;55.80;98783.28;6188582;28;96341;-63
2022/09/24 04:13:26;;;;;;;;;20.00;18.33;;;;;10.71;55.46;98786.81;6194000;28;97197;-64
2022/09/24 04:16:30;;;;;;;;;21.00;19.00;;;;;10.72;55.42;98778.50;6186217;28;96676;-59
2022/09/24 04:19:33;;;;;;;;;20.75;18.00;;;;;10.74;55.38;98781.00;6185103;28;97431;-70
2022/09/24 04:22:38;;;;;;;;;21.50;19.25;;;;;10.77;55.26;98783.22;6186672;28;97622;-69
2022/09/24 04:25:41;;;;;;;;;21.20;21.00;;;;;10.80;55.26;98778.19;6171258;28;96512;-60
2022/09/24 04:28:45;;;;;;;;;18.00;18.00;;;;;10.84;55.28;98782.13;6180897;28;97516;-61
2022/09/24 04:31:48;;;;;;;;;20.40;18.40;;;;;10.88;55.13;98779.78;6184102;28;96196;-61
2022/09/24 04:34:52;;;;;;;;;21.00;19.00;;;;;10.90;55.01;98784.97;6193629;28;96357;-59
2022/09/24 04:37:58;;;;;;;;;19.80;19.00;;;;;10.90;54.89;98791.16;6187345;28;96344;-70
2022/09/24 04:41:06;;;;;;;;;21.60;20.20;;;;;10.92;54.85;98778.28;6186947;28;96455;-70
2022/09/24 04:44:10;;;;;;;;;19.00;18.60;;;;;10.97;55.39;98780.28;6182922;28;97569;-63
2022/09/24 04:47:13;;;;;;;;;21.00;19.00;;;;;11.02;55.37;98780.44;6187428;28;97085;-59
2022/09/24 04:50:17;;;;;;;;;20.00;18.80;;;;;11.06;55.50;98771.66;6187846;28;96431;-63
2022/09/24 04:53:22;;;;;;;;;22.00;19.60;;;;;11.12;55.39;98773.44;6187962;28;96630;-59
2022/09/24 04:56:25;;;;;;;;;20.00;18.00;;;;;11.17;55.24;98778.16;6183329;28;97557;-63
2022/09/24 04:59:28;;;;;;;;;21.40;19.40;;;;;11.20;54.89;98778.53;6186082;28;96391;-63
2022/09/24 05:02:32;;;;;;;;;19.60;18.60;;;;;11.25;55.11;98775.13;6187744;28;97764;-63
2022/09/24 05:05:36;;;;;;;;;19.00;16.20;;;;;11.34;54.92;98772.97;6185382;28;96607;-63
2022/09/24 05:08:40;;;;;;;;;18.80;16.80;;;;;11.40;55.28;98764.75;6167624;28;97223;-63
2022/09/24 05:11:45;;;;;;;;;21.60;20.00;;;;;11.48;55.31;98767.16;6187176;28;96431;-64
2022/09/24 05:14:49;;;;;;;;;21.40;19.60;;;;;11.54;54.76;98765.38;6187185;28;96847;-63
2022/09/24 05:17:52;;;;;;;;;19.80;18.80;;;;;11.58;55.15;98770.06;6185876;28;98400;-63
2022/09/24 05:20:56;;;;;;;;;20.40;19.40;;;;;11.67;55.08;98770.59;6180846;28;96271;-63
2022/09/24 05:24:01;;;;;;;;;22.00;19.40;;;;;11.78;55.10;98767.09;6187370;28;96370;-58
2022/09/24 05:27:10;;;;;;;;;20.80;19.40;;;;;11.88;55.13;98761.13;6180150;28;96276;-70
2022/09/24 05:30:14;;;;;;;;;19.80;17.00;;;;;12.00;55.00;98761.97;6188321;28;96456;-70
2022/09/24 05:33:17;;;;;;;;;19.00;18.00;;;;;12.12;54.57;98763.63;6187891;28;96256;-63
2022/09/24 05:36:21;;;;;;;;;20.00;19.00;;;;;12.26;54.54;98758.00;6188125;28;96778;-63
2022/09/24 05:39:26;;;;;;;;;22.75;19.00;;;;;12.46;54.57;98753.06;6180431;28;96258;-63
2022/09/24 05:42:36;;;;;;;;;20.50;20.50;;;;;12.71;54.36;98766.28;6172879;28;96651;-64
2022/09/24 05:45:40;;;;;;;;;25.00;22.00;;;;;12.93;54.10;98764.59;6186695;28;96539;-63
2022/09/24 05:48:43;;;;;;;;;24.00;22.00;;;;;13.20;53.74;98767.56;6187429;28;96356;-63
2022/09/24 05:51:50;;;;;;;;;21.00;20.00;;;;;13.45;53.38;98760.75;6163159;28;96666;-65
2022/09/24 05:54:56;;;;;;;;;25.20;21.60;;;;;13.63;nan;98734.53;6187710;28;96441;-63
2022/09/24 05:58:03;;;;;;;;;27.40;26.80;;;;;14.17;52.37;98777.13;6187466;28;96438;-59
2022/09/24 06:01:07;;;;;;;;;24.00;23.00;;;;;14.61;52.12;98771.88;6186049;28;96495;-63
2022/09/24 06:04:11;;;;;;;;;23.80;21.80;;;;;14.94;50.79;98765.50;6186468;28;96988;-60
2022/09/24 06:07:14;;;;;;;;;25.00;22.80;;;;;15.15;50.64;98764.66;6179831;28;96248;-70
2022/09/24 06:10:19;;;;;;;;;23.00;22.00;;;;;15.34;50.38;98773.31;6187077;28;96763;-60
2022/09/24 06:13:22;;;;;;;;;22.25;20.25;;;;;15.43;50.37;98771.78;6184158;28;96320;-59
2022/09/24 06:16:26;;;;;;;;;24.20;21.20;;;;;15.58;50.38;98766.53;6177330;28;96473;-59
2022/09/24 06:19:29;;;;;;;;;27.00;22.40;;;;;15.72;49.50;98772.38;6185391;28;96454;-64
2022/09/24 06:22:32;;;;;;;;;26.40;22.00;;;;;15.80;48.39;98780.03;6186962;28;96603;-64
2022/09/24 06:25:37;;;;;;;;;24.00;21.60;;;;;15.97;47.69;98780.75;6187031;28;96201;-66
2022/09/24 06:28:42;;;;;;;;;23.00;22.00;;;;;16.21;47.64;98782.03;6185031;28;96533;-63
2022/09/24 06:31:46;;;;;;;;;22.80;22.20;;;;;16.49;47.39;98789.03;6185943;28;96804;-62
2022/09/24 06:34:50;;;;;;;;;24.40;22.40;;;;;16.80;46.31;98779.19;6187499;28;97010;-64
2022/09/24 06:38:00;;;;;;;;;23.00;20.00;;;;;16.99;46.42;98788.53;6186520;28;96365;-63
2022/09/24 06:41:06;;;;;;;;;23.40;21.40;;;;;17.33;45.93;98786.22;6177495;28;96596;-63
2022/09/24 06:44:10;;;;;;;;;25.40;21.40;;;;;17.58;44.89;98785.47;6187316;28;96894;-65
2022/09/24 06:47:13;;;;;;;;;18.40;17.00;;;;;17.64;43.47;98784.41;6197055;28;96255;-60
2022/09/24 06:50:17;;;;;;;;;20.00;18.60;;;;;17.85;43.62;98786.06;6190157;28;96969;-64
2022/09/24 06:53:20;;;;;;;;;20.75;20.00;;;;;18.01;43.35;98787.72;6168008;28;97419;-61
2022/09/24 06:56:25;;;;;;;;;18.00;18.00;;;;;18.24;43.61;98788.25;6173821;28;96758;-64
2022/09/24 06:59:28;;;;;;;;;19.40;16.00;;;;;18.26;42.78;98783.34;6187098;28;96507;-59
2022/09/24 07:02:32;;;;;;;;;20.20;20.00;;;;;18.35;43.13;98787.16;6198310;28;97390;-64
2022/09/24 07:05:35;;;;;;;;;21.40;20.40;;;;;18.40;43.69;98784.44;6183173;28;96483;-66
2022/09/24 07:08:49;;;;;;;;;25.40;23.80;;;;;18.51;43.93;98792.34;6178913;28;97119;-61
2022/09/24 07:11:55;;;;;;;;;26.00;23.00;;;;;18.70;43.94;98792.59;6177396;28;96242;-64
2022/09/24 07:14:59;;;;;;;;;29.00;26.00;;;;;18.81;43.03;98799.69;6184802;28;96644;-59
2022/09/24 07:18:03;;;;;;;;;30.00;27.00;;;;;19.07;43.41;98794.94;6188429;28;96137;-59
2022/09/24 07:21:06;;;;;;;;;25.00;23.40;;;;;19.43;42.95;98801.06;6193139;28;96830;-65
2022/09/24 07:24:09;;;;;;;;;28.60;25.80;;;;;19.88;42.57;98800.84;6185904;28;96537;-70
2022/09/24 07:27:14;;;;;;;;;26.00;23.80;;;;;20.30;41.09;98777.50;6188368;28;96438;-64
2022/09/24 07:30:18;;;;;;;;;24.80;22.80;;;;;21.00;39.23;98795.19;6190566;28;96574;-65
2022/09/24 07:33:21;;;;;;;;;28.40;26.00;;;;;21.41;38.14;98811.16;6191893;28;96621;-70
2022/09/24 07:36:25;;;;;;;;;26.00;24.00;;;;;21.57;37.21;98798.88;6189352;28;96648;-69
2022/09/24 07:39:28;;;;;;;;;24.60;22.60;;;;;21.82;37.34;98808.66;6186102;28;96662;-64
2022/09/24 07:42:33;;;;;;;;;24.00;22.00;;;;;21.95;37.77;98806.03;6186076;28;97474;-64
2022/09/24 07:45:36;;;;;;;;;28.00;24.00;;;;;22.08;37.14;98803.66;6172196;28;96799;-65
2022/09/24 07:48:39;;;;;;;;;26.00;23.40;;;;;21.90;37.36;98802.50;6185410;28;96564;-70
2022/09/24 07:51:43;;;;;;;;;28.40;26.20;;;;;21.97;37.70;98809.28;6188980;28;96413;-70
2022/09/24 07:54:46;;;;;;;;;27.25;25.00;;;;;22.19;37.20;98813.34;6190802;28;96692;-68
2022/09/24 07:57:53;;;;;;;;;26.00;24.00;;;;;22.19;36.77;98816.06;6189593;28;96443;-63
2022/09/24 08:00:58;;;;;;;;;29.25;25.25;;;;;22.21;37.24;98817.44;6189078;28;97258;-60
2022/09/24 08:04:03;;;;;;;;;28.00;25.00;;;;;22.30;37.44;98812.06;6187203;28;97076;-63
2022/09/24 08:07:06;;;;;;;;;26.40;24.40;;;;;22.46;37.73;98811.53;6191513;28;96687;-60
2022/09/24 08:10:10;;;;;;;;;29.00;25.00;;;;;22.63;36.50;98812.88;6187530;28;96590;-60
2022/09/24 08:13:15;;;;;;;;;29.00;26.00;;;;;22.94;36.34;98804.91;6187100;28;97292;-64
2022/09/24 08:16:20;;;;;;;;;25.60;24.20;;;;;23.01;35.94;98808.91;6186262;28;96699;-63
2022/09/24 08:19:23;;;;;;;;;27.00;25.60;;;;;23.02;35.79;98807.75;6184601;28;96861;-64
2022/09/24 08:22:27;;;;;;;;;28.25;26.75;;;;;23.07;35.48;98810.41;6185645;28;96600;-61
2022/09/24 08:25:31;;;;;;;;;25.50;23.50;;;;;23.09;35.08;98816.44;6186600;28;96410;-64
2022/09/24 08:28:37;;;;;;;;;29.00;26.25;;;;;23.03;35.66;98814.88;6186307;28;97509;-64
2022/09/24 08:31:41;;;;;;;;;29.00;26.67;;;;;23.15;35.43;98803.41;6185985;28;96854;-64
2022/09/24 08:34:44;;;;;;;;;23.60;23.40;;;;;23.19;36.33;98807.16;6186206;28;96356;-59
2022/09/24 08:37:48;;;;;;;;;24.00;23.00;;;;;23.40;35.85;98810.31;6185656;28;96541;-62
2022/09/24 08:40:57;;;;;;;;;25.33;24.00;;;;;23.67;35.94;98807.53;6187684;28;96430;-68
2022/09/24 08:44:08;;;;;;;;;27.80;25.00;;;;;23.78;35.72;98814.44;6185564;28;96720;-59
2022/09/24 08:47:23;;;;;;;;;21.50;20.50;;;;;23.81;35.87;98811.06;6189072;28;96495;-68
2022/09/24 08:50:29;;;;;;;;;22.60;21.00;;;;;23.77;35.46;98806.50;6188638;28;96241;-61
2022/09/24 08:53:44;;;;;;;;;20.00;18.50;;;;;23.77;35.82;98812.00;6188460;28;96324;-61
2022/09/24 08:56:48;;;;;;;;;17.50;17.00;;;;;23.92;34.24;98804.22;6187829;28;96299;-61
2022/09/24 08:59:53;;;;;;;;;17.00;16.00;;;;;24.32;33.76;98813.47;6188545;28;96742;-65
2022/09/24 09:03:06;;;;;;;;;17.00;16.00;;;;;24.65;33.91;98802.97;6188671;28;96325;-71
2022/09/24 09:06:23;;;;;;;;;17.00;16.80;;;;;25.13;32.83;98802.25;6188193;28;96518;-59
2022/09/24 09:09:41;;;;;;;;;17.00;15.60;;;;;25.80;32.22;98800.03;6189150;28;96587;-65
2022/09/24 09:12:47;;;;;;;;;17.75;17.00;;;;;26.29;31.17;98791.25;6170950;28;96672;-66
2022/09/24 09:16:02;;;;;;;;;19.80;17.40;;;;;26.52;30.14;98788.31;6188700;28;97075;-66
2022/09/24 09:19:08;;;;;;;;;18.40;18.40;;;;;26.49;30.17;98792.53;6187930;28;97775;-66
2022/09/24 09:22:15;;;;;;;;;17.00;15.00;;;;;26.52;29.20;98788.31;6187778;28;96569;-64
2022/09/24 09:25:22;;;;;;;;;17.25;15.25;;;;;26.44;29.99;98786.38;6187873;28;96265;-64
2022/09/24 09:28:27;;;;;;;;;21.00;18.00;;;;;26.36;30.64;98784.41;6188248;28;96287;-66
2022/09/24 09:31:44;;;;;;;;;17.00;15.60;;;;;26.39;31.02;98790.09;6186675;28;97720;-70
2022/09/24 09:35:01;;;;;;;;;19.60;19.00;;;;;26.58;30.13;98770.41;6186961;28;96823;-65
2022/09/24 09:38:16;;;;;;;;;21.00;20.00;;;;;26.59;29.79;98783.06;6183481;28;96312;-64
2022/09/24 09:41:29;;;;;;;;;17.00;16.00;;;;;26.76;29.99;98768.38;6187640;28;96386;-66
2022/09/24 09:44:40;;;;;;;;;17.00;16.00;;;;;27.10;29.03;98773.81;6187779;28;96329;-65
2022/09/24 09:47:49;;;;;;;;;17.00;15.60;;;;;27.14;29.71;98770.03;6187603;28;96302;-65
2022/09/24 09:50:59;;;;;;;;;23.00;19.50;;;;;27.28;29.12;98764.25;6181138;28;96298;-66
2022/09/24 09:54:03;;;;;;;;;18.00;17.40;;;;;27.31;29.42;98766.38;6169855;28;97085;-71
2022/09/24 09:57:12;;;;;;;;;16.80;16.80;;;;;27.27;29.35;98759.88;6167569;28;96342;-60
2022/09/24 10:00:26;;;;;;;;;12.00;11.00;;;;;27.15;28.30;98765.31;6167511;28;96487;-66
2022/09/24 10:03:34;;;;;;;;;10.00;9.00;;;;;26.76;26.92;98749.84;6165636;28;96230;-67
2022/09/24 10:06:37;;;;;;;;;7.00;7.00;;;;;26.44;25.79;98750.44;6169014;28;96338;-62
2022/09/24 10:09:42;;;;;;;;;6.80;6.00;;;;;26.25;25.41;98743.31;6179520;28;96289;-67
2022/09/24 10:12:45;;;;;;;;;6.00;6.00;;;;;26.26;26.36;98746.88;6176319;28;96075;-62
2022/09/24 10:15:51;;;;;;;;;7.00;7.00;;;;;26.25;26.62;98748.81;6177474;28;96419;-64
2022/09/24 10:18:56;;;;;;;;;7.00;7.00;;;;;26.43;25.82;98740.50;6177411;28;96804;-62
2022/09/24 10:22:09;;;;;;;;;7.40;6.60;;;;;26.22;24.59;98737.63;6175586;28;97615;-67
2022/09/24 10:25:19;;;;;;;;;7.00;6.00;;;;;26.04;25.51;98734.06;6174916;28;98702;-71
2022/09/24 10:31:45;;;;;;;;;7.00;7.00;;;;;24.99;27.71;98734.22;6175995;28;96532;-66
2022/09/24 10:34:57;;;;;;;;;9.00;9.00;;;;;24.85;27.87;98730.75;6178030;28;96727;-67
2022/09/24 10:38:04;;;;;;;;;7.00;6.00;;;;;24.70;27.59;98730.34;6192487;28;96552;-63
2022/09/24 10:41:26;;;;;;;;;26.00;22.20;;;;;24.83;28.04;98733.00;6194692;28;96308;-66
2022/09/24 10:44:35;;;;;;;;;5.00;5.00;;;;;24.90;28.00;98732.56;6194434;28;96497;-67
2022/09/24 10:47:49;;;;;;;;;6.00;5.80;;;;;24.90;29.05;98733.41;6190566;28;96956;-63
2022/09/24 10:51:02;;;;;;;;;6.00;6.00;;;;;24.77;28.54;98719.69;6191425;28;98507;-66
2022/09/24 10:54:29;;;;;;;;;8.00;8.00;;;;;24.40;28.73;98723.72;6208048;28;96275;-71
2022/09/24 10:57:43;;;;;;;;;6.00;6.00;;;;;24.11;28.65;98716.72;6192413;28;96512;-63
2022/09/24 11:00:57;;;;;;;;;7.00;6.00;;;;;23.88;29.82;98726.13;6197429;28;96699;-64
2022/09/24 11:04:22;;;;;;;;;5.00;5.00;;;;;23.80;30.02;98721.34;6193374;28;96526;-72
2022/09/24 11:07:49;;;;;;;;;7.20;7.00;;;;;23.60;29.71;98727.34;6193792;28;96390;-71
2022/09/24 11:11:12;;;;;;;;;6.33;6.33;;;;;23.48;28.97;98722.38;6194643;28;96370;-67
2022/09/24 11:14:45;;;;;;;;;6.00;5.50;;;;;23.60;29.06;98724.59;6199417;28;97559;-63
2022/09/24 11:18:07;;;;;;;;;7.00;6.00;;;;;23.58;29.59;98726.84;6186293;28;97941;-67
2022/09/24 11:21:25;;;;;;;;;6.00;6.00;;;;;23.63;29.83;98715.72;6178393;28;96544;-71
2022/09/24 11:24:46;;;;;;;;;7.40;6.40;;;;;23.74;29.90;98719.84;6172777;28;96987;-67
2022/09/24 11:28:04;;;;;;;;;6.80;6.00;;;;;23.80;28.71;98717.81;6172314;28;96525;-63
2022/09/24 11:31:17;;;;;;;;;5.50;5.00;;;;;23.85;28.83;98707.44;6167562;28;96940;-69
2022/09/24 11:34:43;;;;;;;;;7.00;6.00;;;;;23.84;28.22;98702.28;6173178;28;97334;-62
2022/09/24 11:37:58;;;;;;;;;5.00;5.00;;;;;23.78;27.81;98711.78;6171973;28;96323;-66
2022/09/24 11:41:16;;;;;;;;;7.50;6.00;;;;;23.70;28.69;98703.13;6186694;28;97179;-67
2022/09/24 11:45:03;;;;;;;;;6.20;6.20;;;;;23.85;28.38;98677.16;6187945;28;97065;-68
2022/09/24 11:48:23;;;;;;;;;5.00;5.00;;;;;23.90;28.00;98688.06;6185858;28;97139;-68
2022/09/24 11:51:38;;;;;;;;;6.00;6.00;;;;;24.13;27.41;98688.88;6179293;28;96484;-72
2022/09/24 11:54:52;;;;;;;;;5.00;5.00;;;;;24.63;27.69;98688.66;6183155;28;97677;-62
2022/09/24 11:58:07;;;;;;;;;5.00;5.00;;;;;24.87;27.12;98689.91;6190758;28;96861;-67
2022/09/24 12:01:16;;;;;;;;;4.00;4.00;;;;;24.93;25.84;98696.88;6182325;28;96359;-62
2022/09/24 12:04:25;;;;;;;;;4.00;4.00;;;;;24.83;26.03;98688.88;6184511;28;96750;-68
2022/09/24 12:07:38;;;;;;;;;4.00;4.00;;;;;25.02;26.75;98694.97;6186930;28;96767;-68
2022/09/24 12:10:46;;;;;;;;;4.00;4.00;;;;;25.30;27.08;98687.25;6181591;28;96265;-67
2022/09/24 12:13:56;;;;;;;;;6.00;5.00;;;;;25.39;25.86;98690.81;6182221;28;96365;-63
2022/09/24 12:17:05;;;;;;;;;4.00;3.80;;;;;25.30;25.10;98692.75;6186951;28;97243;-72
2022/09/24 12:20:19;;;;;;;;;5.00;5.00;;;;;25.37;25.83;98687.56;6180817;28;96374;-62
2022/09/24 12:23:28;;;;;;;;;5.00;5.00;;;;;25.56;25.23;98692.00;6169582;28;97208;-67
2022/09/24 12:26:37;;;;;;;;;4.00;4.00;;;;;25.98;25.34;98682.06;6178336;28;96167;-67
2022/09/24 12:33:18;;;;;;;;;4.00;4.00;;;;;26.44;23.58;98692.38;6184135;28;96540;-66
2022/09/24 12:36:32;;;;;;;;;4.60;4.00;;;;;26.19;23.19;98683.78;6176996;28;96487;-61
2022/09/24 12:39:42;;;;;;;;;4.00;3.00;;;;;26.07;25.41;98680.91;6179647;28;96399;-65
2022/09/24 12:42:51;;;;;;;;;4.50;4.50;;;;;25.97;24.56;98672.13;6185783;28;96474;-66
2022/09/24 12:46:03;;;;;;;;;5.00;4.00;;;;;25.54;24.47;98667.44;6179229;28;96433;-62
2022/09/24 12:49:22;;;;;;;;;59.25;47.50;;;;;25.37;25.05;98670.19;6187187;28;96445;-63
2022/09/24 12:52:31;;;;;;;;;4.00;4.00;;;;;25.28;26.48;98667.44;6181272;28;96591;-70
2022/09/24 12:55:35;;;;;;;;;4.00;4.00;;;;;25.36;26.94;98668.59;6189682;28;97032;-66
2022/09/24 12:58:42;;;;;;;;;4.80;4.80;;;;;25.38;27.05;98661.59;6187174;28;97344;-66
2022/09/24 13:01:47;;;;;;;;;5.00;5.00;;;;;25.42;27.01;98659.00;6185673;28;96338;-65
2022/09/24 13:05:18;;;;;;;;;4.75;4.50;;;;;25.41;26.18;98657.38;6186803;28;97499;-71
2022/09/24 13:08:25;;;;;;;;;5.00;4.50;;;;;25.35;26.29;98656.72;6182654;28;96650;-66
2022/09/24 13:11:32;;;;;;;;;8.00;6.00;;;;;25.11;27.10;98626.03;6185041;28;96491;-71
2022/09/24 13:14:35;;;;;;;;;4.00;4.00;;;;;25.18;27.34;98644.84;6185722;28;96891;-67
2022/09/24 13:17:40;;;;;;;;;6.00;5.40;;;;;25.23;27.16;98645.50;6185477;28;97447;-71
2022/09/24 13:20:44;;;;;;;;;4.00;4.00;;;;;25.20;25.67;98642.59;6178102;28;96637;-66
2022/09/24 13:23:53;;;;;;;;;3.00;3.00;;;;;25.17;26.33;98638.53;6186859;28;96347;-66
2022/09/24 13:27:10;;;;;;;;;4.00;4.00;;;;;25.30;27.55;98639.53;6179006;28;96516;-61
2022/09/24 13:30:20;;;;;;;;;5.00;5.00;;;;;25.38;27.58;98631.22;6183123;28;96867;-67
2022/09/24 13:33:30;;;;;;;;;4.40;4.00;;;;;25.32;26.79;98637.22;6181882;28;96436;-67
2022/09/24 13:36:38;;;;;;;;;6.00;6.00;;;;;25.42;27.37;98623.91;6187638;28;96361;-67
2022/09/24 13:39:49;;;;;;;;;6.00;5.60;;;;;25.72;27.20;98607.53;6186435;28;96296;-67
2022/09/24 13:43:00;;;;;;;;;6.00;5.00;;;;;26.13;27.62;98601.41;6184544;28;97599;-67
2022/09/24 13:46:07;;;;;;;;;6.00;5.00;;;;;26.40;27.26;98601.00;6184113;28;96315;-67
2022/09/24 13:49:17;;;;;;;;;5.00;4.00;;;;;26.70;27.18;98591.56;6181776;28;96468;-66
2022/09/24 13:52:30;;;;;;;;;4.00;4.00;;;;;27.29;26.65;98613.66;6181143;28;96785;-60
2022/09/24 13:55:37;;;;;;;;;5.75;5.75;;;;;27.54;26.59;98606.28;6180678;28;98347;-70
2022/09/24 13:58:41;;;;;;;;;5.60;5.00;;;;;27.15;24.38;98613.09;6179388;28;96603;-68
2022/09/24 14:01:46;;;;;;;;;6.00;5.00;;;;;26.75;26.59;98607.16;6180623;28;96954;-62
2022/09/24 14:04:56;;;;;;;;;5.00;5.00;;;;;26.47;26.58;98604.06;6184797;28;96391;-66
2022/09/24 14:08:04;;;;;;;;;5.00;5.00;;;;;26.35;27.26;98603.94;6186055;28;96616;-62
2022/09/24 14:11:16;;;;;;;;;5.00;5.00;;;;;26.14;27.92;98603.03;6183990;28;96856;-63
2022/09/24 14:14:23;;;;;;;;;5.00;5.00;;;;;26.22;27.56;98588.41;6184902;28;96656;-69
2022/09/24 14:17:26;;;;;;;;;6.40;6.00;;;;;26.45;27.88;98600.81;6177203;28;96739;-66
2022/09/24 14:20:35;;;;;;;;;6.00;5.00;;;;;26.42;27.46;98598.72;6186975;28;96797;-66
2022/09/24 14:23:44;;;;;;;;;5.00;5.00;;;;;26.43;27.94;98596.78;6186502;28;96509;-67
2022/09/24 14:26:52;;;;;;;;;6.60;6.00;;;;;26.26;25.94;98598.47;6187598;28;96306;-66
2022/09/24 14:29:59;;;;;;;;;6.50;6.00;;;;;25.53;26.89;98588.53;6187150;28;96303;-65
2022/09/24 14:33:07;;;;;;;;;6.00;5.20;;;;;24.88;27.73;98591.44;6186896;28;96467;-61
2022/09/24 14:36:14;;;;;;;;;5.00;4.00;;;;;24.16;28.56;98589.91;6186031;28;96321;-70
2022/09/24 14:39:17;;;;;;;;;7.00;7.00;;;;;23.88;29.32;98591.22;6187793;28;96456;-67
2022/09/24 14:42:25;;;;;;;;;5.00;5.00;;;;;23.69;29.61;98594.19;6187717;28;96323;-70